sensor_id;sensor_type;location;lat;lon;timestamp;P1;durP1;ratioP1;P2;durP2;ratioP2
4885;SDS011;2457;51.788;6.136;2023-04-27T00:00:10;6.40;;;2.47;;
4885;SDS011;2457;51.788;6.136;2023-04-27T00:02:38;5.23;;;2.20;;
4885;SDS011;2457;51.788;6.136;2023-04-27T00:05:06;7.93;;;2.30;;
4885;SDS011;2457;51.788;6.136;2023-04-27T00:07:35;4.93;;;2.20;;
4885;SDS011;2457;51.788;6.136;2023-04-27T00:10:03;6.97;;;2.73;;
4885;SDS011;2457;51.788;6.136;2023-04-27T00:12:30;9.33;;;4.10;;
4885;SDS011;2457;51.788;6.136;2023-04-27T00:14:57;7.47;;;2.70;;
4885;SDS011;2457;51.788;6.136;2023-04-27T00:17:24;9.90;;;2.60;;
4885;SDS011;2457;51.788;6.136;2023-04-27T00:19:52;5.63;;;2.60;;
4885;SDS011;2457;51.788;6.136;2023-04-27T00:22:19;6.47;;;2.73;;
4885;SDS011;2457;51.788;6.136;2023-04-27T00:24:47;9.10;;;2.33;;
4885;SDS011;2457;51.788;6.136;2023-04-27T00:27:14;5.80;;;2.60;;
4885;SDS011;2457;51.788;6.136;2023-04-27T00:29:42;5.77;;;2.50;;
4885;SDS011;2457;51.788;6.136;2023-04-27T00:32:09;5.80;;;2.33;;
4885;SDS011;2457;51.788;6.136;2023-04-27T00:34:37;6.20;;;2.73;;
4885;SDS011;2457;51.788;6.136;2023-04-27T00:37:04;5.90;;;2.40;;
4885;SDS011;2457;51.788;6.136;2023-04-27T00:39:32;4.27;;;2.30;;
4885;SDS011;2457;51.788;6.136;2023-04-27T00:42:01;7.27;;;2.93;;
4885;SDS011;2457;51.788;6.136;2023-04-27T00:44:28;4.50;;;2.13;;
4885;SDS011;2457;51.788;6.136;2023-04-27T00:46:55;6.30;;;2.13;;
4885;SDS011;2457;51.788;6.136;2023-04-27T00:49:24;5.87;;;2.37;;
4885;SDS011;2457;51.788;6.136;2023-04-27T00:51:52;8.50;;;2.83;;
4885;SDS011;2457;51.788;6.136;2023-04-27T00:54:19;5.20;;;2.73;;
4885;SDS011;2457;51.788;6.136;2023-04-27T00:56:47;7.17;;;2.67;;
4885;SDS011;2457;51.788;6.136;2023-04-27T00:59:15;7.60;;;2.77;;
4885;SDS011;2457;51.788;6.136;2023-04-27T01:01:43;6.37;;;2.70;;
4885;SDS011;2457;51.788;6.136;2023-04-27T01:04:10;5.80;;;2.30;;
4885;SDS011;2457;51.788;6.136;2023-04-27T01:06:37;5.10;;;2.73;;
4885;SDS011;2457;51.788;6.136;2023-04-27T01:09:04;11.03;;;2.90;;
4885;SDS011;2457;51.788;6.136;2023-04-27T01:11:32;8.00;;;2.43;;
4885;SDS011;2457;51.788;6.136;2023-04-27T01:14:04;6.87;;;2.17;;
4885;SDS011;2457;51.788;6.136;2023-04-27T01:16:28;6.37;;;2.50;;
4885;SDS011;2457;51.788;6.136;2023-04-27T01:18:55;4.53;;;2.00;;
4885;SDS011;2457;51.788;6.136;2023-04-27T01:21:22;5.63;;;2.17;;
4885;SDS011;2457;51.788;6.136;2023-04-27T01:23:50;5.90;;;2.50;;
4885;SDS011;2457;51.788;6.136;2023-04-27T01:26:17;5.40;;;2.50;;
4885;SDS011;2457;51.788;6.136;2023-04-27T01:28:44;9.60;;;2.47;;
4885;SDS011;2457;51.788;6.136;2023-04-27T01:31:12;5.13;;;2.60;;
4885;SDS011;2457;51.788;6.136;2023-04-27T01:33:40;7.90;;;2.63;;
4885;SDS011;2457;51.788;6.136;2023-04-27T01:36:08;7.40;;;2.57;;
4885;SDS011;2457;51.788;6.136;2023-04-27T01:38:35;4.53;;;2.13;;
4885;SDS011;2457;51.788;6.136;2023-04-27T01:41:03;5.90;;;2.57;;
4885;SDS011;2457;51.788;6.136;2023-04-27T01:43:30;5.60;;;2.20;;
4885;SDS011;2457;51.788;6.136;2023-04-27T01:46:09;8.30;;;2.47;;
4885;SDS011;2457;51.788;6.136;2023-04-27T01:48:33;5.27;;;2.70;;
4885;SDS011;2457;51.788;6.136;2023-04-27T01:51:00;5.73;;;2.80;;
4885;SDS011;2457;51.788;6.136;2023-04-27T01:53:29;6.10;;;2.37;;
4885;SDS011;2457;51.788;6.136;2023-04-27T01:55:56;7.63;;;2.87;;
4885;SDS011;2457;51.788;6.136;2023-04-27T01:58:25;9.10;;;2.43;;
4885;SDS011;2457;51.788;6.136;2023-04-27T02:00:53;5.57;;;2.17;;
4885;SDS011;2457;51.788;6.136;2023-04-27T02:03:20;6.23;;;2.70;;
4885;SDS011;2457;51.788;6.136;2023-04-27T02:05:47;5.07;;;2.53;;
4885;SDS011;2457;51.788;6.136;2023-04-27T02:08:14;7.23;;;2.50;;
4885;SDS011;2457;51.788;6.136;2023-04-27T02:10:42;4.60;;;2.30;;
4885;SDS011;2457;51.788;6.136;2023-04-27T02:13:09;4.70;;;2.73;;
4885;SDS011;2457;51.788;6.136;2023-04-27T02:15:36;7.73;;;2.70;;
4885;SDS011;2457;51.788;6.136;2023-04-27T02:18:03;5.80;;;2.73;;
4885;SDS011;2457;51.788;6.136;2023-04-27T02:20:31;5.47;;;2.23;;
4885;SDS011;2457;51.788;6.136;2023-04-27T02:22:58;7.53;;;2.53;;
4885;SDS011;2457;51.788;6.136;2023-04-27T02:25:27;5.83;;;3.00;;
4885;SDS011;2457;51.788;6.136;2023-04-27T02:27:54;7.10;;;3.07;;
4885;SDS011;2457;51.788;6.136;2023-04-27T02:30:22;7.40;;;3.13;;
4885;SDS011;2457;51.788;6.136;2023-04-27T02:32:49;7.30;;;3.30;;
4885;SDS011;2457;51.788;6.136;2023-04-27T02:35:16;10.77;;;2.37;;
4885;SDS011;2457;51.788;6.136;2023-04-27T02:37:43;6.47;;;3.13;;
4885;SDS011;2457;51.788;6.136;2023-04-27T02:40:11;6.63;;;2.80;;
4885;SDS011;2457;51.788;6.136;2023-04-27T02:42:38;10.23;;;2.70;;
4885;SDS011;2457;51.788;6.136;2023-04-27T02:45:06;7.50;;;2.73;;
4885;SDS011;2457;51.788;6.136;2023-04-27T02:47:33;6.17;;;2.93;;
4885;SDS011;2457;51.788;6.136;2023-04-27T02:50:01;6.20;;;3.23;;
4885;SDS011;2457;51.788;6.136;2023-04-27T02:52:29;5.90;;;2.73;;
4885;SDS011;2457;51.788;6.136;2023-04-27T02:54:56;8.30;;;2.70;;
4885;SDS011;2457;51.788;6.136;2023-04-27T02:57:23;6.70;;;2.97;;
4885;SDS011;2457;51.788;6.136;2023-04-27T02:59:51;8.20;;;2.90;;
4885;SDS011;2457;51.788;6.136;2023-04-27T03:02:18;5.90;;;2.80;;
4885;SDS011;2457;51.788;6.136;2023-04-27T03:04:45;6.13;;;3.07;;
4885;SDS011;2457;51.788;6.136;2023-04-27T03:07:12;8.60;;;3.30;;
4885;SDS011;2457;51.788;6.136;2023-04-27T03:09:40;8.40;;;3.20;;
4885;SDS011;2457;51.788;6.136;2023-04-27T03:12:07;6.50;;;3.20;;
4885;SDS011;2457;51.788;6.136;2023-04-27T03:14:34;7.93;;;3.03;;
4885;SDS011;2457;51.788;6.136;2023-04-27T03:17:02;10.43;;;3.27;;
4885;SDS011;2457;51.788;6.136;2023-04-27T03:19:29;7.23;;;2.97;;
4885;SDS011;2457;51.788;6.136;2023-04-27T03:21:56;5.67;;;3.27;;
4885;SDS011;2457;51.788;6.136;2023-04-27T03:24:23;7.40;;;3.37;;
4885;SDS011;2457;51.788;6.136;2023-04-27T03:26:50;5.70;;;2.87;;
4885;SDS011;2457;51.788;6.136;2023-04-27T03:29:18;6.67;;;2.90;;
4885;SDS011;2457;51.788;6.136;2023-04-27T03:31:45;9.37;;;3.47;;
4885;SDS011;2457;51.788;6.136;2023-04-27T03:34:12;9.50;;;3.87;;
4885;SDS011;2457;51.788;6.136;2023-04-27T03:36:40;6.70;;;2.83;;
4885;SDS011;2457;51.788;6.136;2023-04-27T03:39:07;8.20;;;3.63;;
4885;SDS011;2457;51.788;6.136;2023-04-27T03:41:34;11.67;;;4.17;;
4885;SDS011;2457;51.788;6.136;2023-04-27T03:44:01;9.00;;;3.47;;
4885;SDS011;2457;51.788;6.136;2023-04-27T03:46:29;10.83;;;3.67;;
4885;SDS011;2457;51.788;6.136;2023-04-27T03:48:56;7.53;;;4.10;;
4885;SDS011;2457;51.788;6.136;2023-04-27T03:51:23;9.27;;;3.40;;
4885;SDS011;2457;51.788;6.136;2023-04-27T03:53:51;7.77;;;3.93;;
4885;SDS011;2457;51.788;6.136;2023-04-27T03:56:18;6.83;;;3.60;;
4885;SDS011;2457;51.788;6.136;2023-04-27T03:58:46;9.80;;;3.53;;
4885;SDS011;2457;51.788;6.136;2023-04-27T04:01:13;7.40;;;3.43;;
4885;SDS011;2457;51.788;6.136;2023-04-27T04:03:41;7.67;;;3.70;;
4885;SDS011;2457;51.788;6.136;2023-04-27T04:06:09;8.67;;;4.13;;
4885;SDS011;2457;51.788;6.136;2023-04-27T04:08:36;7.53;;;3.40;;
4885;SDS011;2457;51.788;6.136;2023-04-27T04:11:03;6.57;;;3.97;;
4885;SDS011;2457;51.788;6.136;2023-04-27T04:13:31;7.37;;;3.60;;
4885;SDS011;2457;51.788;6.136;2023-04-27T04:16:09;7.27;;;3.70;;
4885;SDS011;2457;51.788;6.136;2023-04-27T04:18:33;7.47;;;3.80;;
4885;SDS011;2457;51.788;6.136;2023-04-27T04:21:01;9.87;;;3.73;;
4885;SDS011;2457;51.788;6.136;2023-04-27T04:23:28;8.10;;;4.00;;
4885;SDS011;2457;51.788;6.136;2023-04-27T04:25:58;8.53;;;3.73;;
4885;SDS011;2457;51.788;6.136;2023-04-27T04:28:25;6.00;;;3.30;;
4885;SDS011;2457;51.788;6.136;2023-04-27T04:30:52;7.37;;;3.93;;
4885;SDS011;2457;51.788;6.136;2023-04-27T04:33:19;9.30;;;3.77;;
4885;SDS011;2457;51.788;6.136;2023-04-27T04:35:47;10.53;;;4.17;;
4885;SDS011;2457;51.788;6.136;2023-04-27T04:38:14;8.27;;;3.90;;
4885;SDS011;2457;51.788;6.136;2023-04-27T04:40:42;10.97;;;4.27;;
4885;SDS011;2457;51.788;6.136;2023-04-27T04:43:09;9.40;;;3.90;;
4885;SDS011;2457;51.788;6.136;2023-04-27T04:45:37;9.10;;;4.27;;
4885;SDS011;2457;51.788;6.136;2023-04-27T04:48:04;11.90;;;4.57;;
4885;SDS011;2457;51.788;6.136;2023-04-27T04:50:32;7.00;;;3.97;;
4885;SDS011;2457;51.788;6.136;2023-04-27T04:52:59;7.90;;;4.27;;
4885;SDS011;2457;51.788;6.136;2023-04-27T04:55:26;8.90;;;4.27;;
4885;SDS011;2457;51.788;6.136;2023-04-27T04:57:54;9.20;;;4.13;;
4885;SDS011;2457;51.788;6.136;2023-04-27T05:00:21;10.10;;;4.20;;
4885;SDS011;2457;51.788;6.136;2023-04-27T05:02:48;6.93;;;3.63;;
4885;SDS011;2457;51.788;6.136;2023-04-27T05:05:15;8.70;;;3.90;;
4885;SDS011;2457;51.788;6.136;2023-04-27T05:07:43;7.10;;;4.10;;
4885;SDS011;2457;51.788;6.136;2023-04-27T05:10:10;7.23;;;4.10;;
4885;SDS011;2457;51.788;6.136;2023-04-27T05:12:37;8.30;;;3.93;;
4885;SDS011;2457;51.788;6.136;2023-04-27T05:15:05;9.43;;;4.03;;
4885;SDS011;2457;51.788;6.136;2023-04-27T05:17:33;8.17;;;4.53;;
4885;SDS011;2457;51.788;6.136;2023-04-27T05:20:00;7.60;;;3.80;;
4885;SDS011;2457;51.788;6.136;2023-04-27T05:22:28;7.33;;;4.13;;
4885;SDS011;2457;51.788;6.136;2023-04-27T05:24:55;8.53;;;3.97;;
4885;SDS011;2457;51.788;6.136;2023-04-27T05:27:22;7.20;;;3.40;;
4885;SDS011;2457;51.788;6.136;2023-04-27T05:29:50;6.60;;;3.53;;
4885;SDS011;2457;51.788;6.136;2023-04-27T05:32:17;7.23;;;3.97;;
4885;SDS011;2457;51.788;6.136;2023-04-27T05:34:44;9.53;;;4.13;;
4885;SDS011;2457;51.788;6.136;2023-04-27T05:37:11;8.30;;;3.83;;
4885;SDS011;2457;51.788;6.136;2023-04-27T05:39:39;8.87;;;3.70;;
4885;SDS011;2457;51.788;6.136;2023-04-27T05:42:07;10.63;;;4.20;;
4885;SDS011;2457;51.788;6.136;2023-04-27T05:44:34;6.33;;;3.40;;
4885;SDS011;2457;51.788;6.136;2023-04-27T05:47:01;7.83;;;3.80;;
4885;SDS011;2457;51.788;6.136;2023-04-27T05:49:29;10.23;;;3.60;;
4885;SDS011;2457;51.788;6.136;2023-04-27T05:51:56;10.73;;;4.23;;
4885;SDS011;2457;51.788;6.136;2023-04-27T05:54:24;12.00;;;4.60;;
4885;SDS011;2457;51.788;6.136;2023-04-27T05:56:52;8.67;;;4.10;;
4885;SDS011;2457;51.788;6.136;2023-04-27T05:59:20;6.47;;;3.47;;
4885;SDS011;2457;51.788;6.136;2023-04-27T06:01:47;9.03;;;3.73;;
4885;SDS011;2457;51.788;6.136;2023-04-27T06:04:14;9.10;;;4.13;;
4885;SDS011;2457;51.788;6.136;2023-04-27T06:06:41;8.50;;;3.53;;
4885;SDS011;2457;51.788;6.136;2023-04-27T06:09:10;7.07;;;3.73;;
4885;SDS011;2457;51.788;6.136;2023-04-27T06:11:37;7.40;;;3.70;;
4885;SDS011;2457;51.788;6.136;2023-04-27T06:14:04;8.37;;;3.80;;
4885;SDS011;2457;51.788;6.136;2023-04-27T06:16:31;8.30;;;3.43;;
4885;SDS011;2457;51.788;6.136;2023-04-27T06:18:59;9.10;;;3.50;;
4885;SDS011;2457;51.788;6.136;2023-04-27T06:21:26;10.63;;;3.43;;
4885;SDS011;2457;51.788;6.136;2023-04-27T06:23:53;12.90;;;3.30;;
4885;SDS011;2457;51.788;6.136;2023-04-27T06:26:21;7.33;;;3.10;;
4885;SDS011;2457;51.788;6.136;2023-04-27T06:28:48;6.10;;;3.20;;
4885;SDS011;2457;51.788;6.136;2023-04-27T06:31:15;6.13;;;3.10;;
4885;SDS011;2457;51.788;6.136;2023-04-27T06:33:43;6.10;;;2.63;;
4885;SDS011;2457;51.788;6.136;2023-04-27T06:36:10;6.80;;;2.83;;
4885;SDS011;2457;51.788;6.136;2023-04-27T06:38:37;6.93;;;2.40;;
4885;SDS011;2457;51.788;6.136;2023-04-27T06:41:05;6.83;;;2.90;;
4885;SDS011;2457;51.788;6.136;2023-04-27T06:43:32;5.00;;;2.70;;
4885;SDS011;2457;51.788;6.136;2023-04-27T06:45:59;7.13;;;2.50;;
4885;SDS011;2457;51.788;6.136;2023-04-27T06:48:27;6.00;;;2.70;;
4885;SDS011;2457;51.788;6.136;2023-04-27T06:50:54;12.30;;;2.77;;
4885;SDS011;2457;51.788;6.136;2023-04-27T06:53:21;9.07;;;2.70;;
4885;SDS011;2457;51.788;6.136;2023-04-27T06:55:49;8.70;;;2.93;;
4885;SDS011;2457;51.788;6.136;2023-04-27T06:58:16;5.00;;;2.50;;
4885;SDS011;2457;51.788;6.136;2023-04-27T07:00:43;5.73;;;2.70;;
4885;SDS011;2457;51.788;6.136;2023-04-27T07:03:10;6.70;;;2.77;;
4885;SDS011;2457;51.788;6.136;2023-04-27T07:05:38;8.50;;;2.50;;
4885;SDS011;2457;51.788;6.136;2023-04-27T07:08:05;4.50;;;2.40;;
4885;SDS011;2457;51.788;6.136;2023-04-27T07:10:33;6.00;;;2.30;;
4885;SDS011;2457;51.788;6.136;2023-04-27T07:13:00;9.17;;;2.23;;
4885;SDS011;2457;51.788;6.136;2023-04-27T07:15:27;7.17;;;3.30;;
4885;SDS011;2457;51.788;6.136;2023-04-27T07:17:56;5.03;;;2.20;;
4885;SDS011;2457;51.788;6.136;2023-04-27T07:20:23;5.63;;;1.90;;
4885;SDS011;2457;51.788;6.136;2023-04-27T07:22:50;10.40;;;2.30;;
4885;SDS011;2457;51.788;6.136;2023-04-27T07:25:18;5.80;;;2.47;;
4885;SDS011;2457;51.788;6.136;2023-04-27T07:27:46;5.10;;;2.07;;
4885;SDS011;2457;51.788;6.136;2023-04-27T07:30:13;11.23;;;2.57;;
4885;SDS011;2457;51.788;6.136;2023-04-27T07:32:42;9.00;;;2.73;;
4885;SDS011;2457;51.788;6.136;2023-04-27T07:35:09;5.50;;;2.57;;
4885;SDS011;2457;51.788;6.136;2023-04-27T07:37:36;4.77;;;2.10;;
4885;SDS011;2457;51.788;6.136;2023-04-27T07:40:04;7.30;;;2.57;;
4885;SDS011;2457;51.788;6.136;2023-04-27T07:42:33;6.00;;;1.97;;
4885;SDS011;2457;51.788;6.136;2023-04-27T07:45:03;4.77;;;2.10;;
4885;SDS011;2457;51.788;6.136;2023-04-27T07:47:30;5.30;;;2.00;;
4885;SDS011;2457;51.788;6.136;2023-04-27T07:49:58;4.20;;;1.93;;
4885;SDS011;2457;51.788;6.136;2023-04-27T07:52:26;6.23;;;2.47;;
4885;SDS011;2457;51.788;6.136;2023-04-27T07:54:53;5.87;;;2.00;;
4885;SDS011;2457;51.788;6.136;2023-04-27T07:57:20;5.80;;;2.10;;
4885;SDS011;2457;51.788;6.136;2023-04-27T07:59:48;4.63;;;1.90;;
4885;SDS011;2457;51.788;6.136;2023-04-27T08:02:15;6.97;;;2.10;;
4885;SDS011;2457;51.788;6.136;2023-04-27T08:04:42;5.20;;;1.77;;
4885;SDS011;2457;51.788;6.136;2023-04-27T08:07:09;4.80;;;2.17;;
4885;SDS011;2457;51.788;6.136;2023-04-27T08:09:37;4.57;;;1.80;;
4885;SDS011;2457;51.788;6.136;2023-04-27T08:12:04;5.37;;;2.00;;
4885;SDS011;2457;51.788;6.136;2023-04-27T08:14:36;5.40;;;1.97;;
4885;SDS011;2457;51.788;6.136;2023-04-27T08:17:00;5.73;;;1.57;;
4885;SDS011;2457;51.788;6.136;2023-04-27T08:19:28;6.90;;;2.20;;
4885;SDS011;2457;51.788;6.136;2023-04-27T08:21:55;3.33;;;1.50;;
4885;SDS011;2457;51.788;6.136;2023-04-27T08:24:22;5.20;;;2.23;;
4885;SDS011;2457;51.788;6.136;2023-04-27T08:26:49;7.40;;;2.57;;
4885;SDS011;2457;51.788;6.136;2023-04-27T08:29:17;5.50;;;1.70;;
4885;SDS011;2457;51.788;6.136;2023-04-27T08:31:44;7.57;;;1.63;;
4885;SDS011;2457;51.788;6.136;2023-04-27T08:34:11;4.20;;;1.90;;
4885;SDS011;2457;51.788;6.136;2023-04-27T08:36:38;5.70;;;1.90;;
4885;SDS011;2457;51.788;6.136;2023-04-27T08:39:06;7.00;;;2.17;;
4885;SDS011;2457;51.788;6.136;2023-04-27T08:41:34;4.57;;;2.03;;
4885;SDS011;2457;51.788;6.136;2023-04-27T08:44:01;4.63;;;2.20;;
4885;SDS011;2457;51.788;6.136;2023-04-27T08:46:30;5.37;;;1.70;;
4885;SDS011;2457;51.788;6.136;2023-04-27T08:48:57;3.03;;;1.30;;
4885;SDS011;2457;51.788;6.136;2023-04-27T08:51:25;3.90;;;1.57;;
4885;SDS011;2457;51.788;6.136;2023-04-27T08:53:54;5.47;;;2.10;;
4885;SDS011;2457;51.788;6.136;2023-04-27T08:56:25;7.70;;;2.10;;
4885;SDS011;2457;51.788;6.136;2023-04-27T08:58:54;6.57;;;2.20;;
4885;SDS011;2457;51.788;6.136;2023-04-27T09:01:21;7.00;;;2.20;;
4885;SDS011;2457;51.788;6.136;2023-04-27T09:03:59;4.63;;;1.80;;
4885;SDS011;2457;51.788;6.136;2023-04-27T09:06:27;5.93;;;2.00;;
4885;SDS011;2457;51.788;6.136;2023-04-27T09:08:47;6.23;;;1.90;;
4885;SDS011;2457;51.788;6.136;2023-04-27T09:11:37;4.87;;;2.40;;
4885;SDS011;2457;51.788;6.136;2023-04-27T09:13:43;4.40;;;1.70;;
4885;SDS011;2457;51.788;6.136;2023-04-27T09:16:12;6.00;;;2.00;;
4885;SDS011;2457;51.788;6.136;2023-04-27T09:18:41;4.60;;;1.80;;
4885;SDS011;2457;51.788;6.136;2023-04-27T09:21:09;10.10;;;2.00;;
4885;SDS011;2457;51.788;6.136;2023-04-27T09:23:37;7.93;;;2.17;;
4885;SDS011;2457;51.788;6.136;2023-04-27T09:26:06;4.90;;;2.20;;
4885;SDS011;2457;51.788;6.136;2023-04-27T09:28:36;6.07;;;1.97;;
4885;SDS011;2457;51.788;6.136;2023-04-27T09:31:03;7.47;;;1.93;;
4885;SDS011;2457;51.788;6.136;2023-04-27T09:33:31;9.10;;;2.17;;
4885;SDS011;2457;51.788;6.136;2023-04-27T09:36:00;5.10;;;1.83;;
4885;SDS011;2457;51.788;6.136;2023-04-27T09:38:28;5.17;;;2.10;;
4885;SDS011;2457;51.788;6.136;2023-04-27T09:40:56;4.63;;;2.03;;
4885;SDS011;2457;51.788;6.136;2023-04-27T09:43:23;5.70;;;2.20;;
4885;SDS011;2457;51.788;6.136;2023-04-27T09:45:52;5.73;;;2.07;;
4885;SDS011;2457;51.788;6.136;2023-04-27T09:48:20;6.50;;;2.23;;
4885;SDS011;2457;51.788;6.136;2023-04-27T09:50:48;5.63;;;2.10;;
4885;SDS011;2457;51.788;6.136;2023-04-27T09:53:29;4.00;;;1.90;;
4885;SDS011;2457;51.788;6.136;2023-04-27T09:56:02;5.27;;;2.30;;
4885;SDS011;2457;51.788;6.136;2023-04-27T10:03:42;6.80;;;2.60;;
4885;SDS011;2457;51.788;6.136;2023-04-27T10:06:19;5.63;;;2.33;;
4885;SDS011;2457;51.788;6.136;2023-04-27T10:08:37;5.50;;;2.20;;
4885;SDS011;2457;51.788;6.136;2023-04-27T10:11:14;6.03;;;2.43;;
4885;SDS011;2457;51.788;6.136;2023-04-27T10:13:53;5.70;;;3.03;;
4885;SDS011;2457;51.788;6.136;2023-04-27T10:16:21;7.23;;;2.60;;
4885;SDS011;2457;51.788;6.136;2023-04-27T10:18:56;5.27;;;2.63;;
4885;SDS011;2457;51.788;6.136;2023-04-27T10:21:20;7.73;;;2.70;;
4885;SDS011;2457;51.788;6.136;2023-04-27T10:23:49;5.03;;;2.50;;
4885;SDS011;2457;51.788;6.136;2023-04-27T10:26:24;5.07;;;2.40;;
4885;SDS011;2457;51.788;6.136;2023-04-27T10:28:59;6.50;;;2.57;;
4885;SDS011;2457;51.788;6.136;2023-04-27T10:31:27;8.30;;;2.50;;
4885;SDS011;2457;51.788;6.136;2023-04-27T10:34:08;8.50;;;2.63;;
4885;SDS011;2457;51.788;6.136;2023-04-27T10:36:34;5.13;;;2.47;;
4885;SDS011;2457;51.788;6.136;2023-04-27T10:39:02;5.87;;;2.50;;
4885;SDS011;2457;51.788;6.136;2023-04-27T10:41:33;5.53;;;2.60;;
4885;SDS011;2457;51.788;6.136;2023-04-27T10:44:16;5.27;;;2.87;;
4885;SDS011;2457;51.788;6.136;2023-04-27T10:46:50;7.10;;;2.80;;
4885;SDS011;2457;51.788;6.136;2023-04-27T10:49:18;6.47;;;2.67;;
4885;SDS011;2457;51.788;6.136;2023-04-27T10:51:45;6.47;;;2.70;;
4885;SDS011;2457;51.788;6.136;2023-04-27T10:54:13;6.17;;;2.40;;
4885;SDS011;2457;51.788;6.136;2023-04-27T10:56:40;7.10;;;2.57;;
4885;SDS011;2457;51.788;6.136;2023-04-27T10:59:08;4.87;;;2.40;;
4885;SDS011;2457;51.788;6.136;2023-04-27T11:01:35;6.30;;;2.80;;
4885;SDS011;2457;51.788;6.136;2023-04-27T11:04:03;5.67;;;2.80;;
4885;SDS011;2457;51.788;6.136;2023-04-27T11:06:30;4.63;;;2.40;;
4885;SDS011;2457;51.788;6.136;2023-04-27T11:08:58;5.17;;;2.57;;
4885;SDS011;2457;51.788;6.136;2023-04-27T11:11:26;7.33;;;2.60;;
4885;SDS011;2457;51.788;6.136;2023-04-27T11:13:53;8.03;;;3.10;;
4885;SDS011;2457;51.788;6.136;2023-04-27T11:16:22;9.40;;;3.03;;
4885;SDS011;2457;51.788;6.136;2023-04-27T11:18:49;9.10;;;3.20;;
4885;SDS011;2457;51.788;6.136;2023-04-27T11:21:17;7.23;;;2.97;;
4885;SDS011;2457;51.788;6.136;2023-04-27T11:23:46;8.33;;;3.27;;
4885;SDS011;2457;51.788;6.136;2023-04-27T11:26:20;5.80;;;2.93;;
4885;SDS011;2457;51.788;6.136;2023-04-27T11:29:02;6.10;;;3.17;;
4885;SDS011;2457;51.788;6.136;2023-04-27T11:31:41;9.03;;;3.40;;
4885;SDS011;2457;51.788;6.136;2023-04-27T11:34:06;6.27;;;3.23;;
4885;SDS011;2457;51.788;6.136;2023-04-27T11:36:33;6.37;;;3.17;;
4885;SDS011;2457;51.788;6.136;2023-04-27T11:39:01;7.17;;;3.47;;
4885;SDS011;2457;51.788;6.136;2023-04-27T11:41:37;5.93;;;2.60;;
4885;SDS011;2457;51.788;6.136;2023-04-27T11:44:05;6.10;;;3.00;;
4885;SDS011;2457;51.788;6.136;2023-04-27T11:46:36;6.70;;;3.20;;
4885;SDS011;2457;51.788;6.136;2023-04-27T11:49:03;6.63;;;3.30;;
4885;SDS011;2457;51.788;6.136;2023-04-27T11:51:31;8.20;;;3.13;;
4885;SDS011;2457;51.788;6.136;2023-04-27T11:54:03;7.10;;;3.40;;
4885;SDS011;2457;51.788;6.136;2023-04-27T11:56:34;7.10;;;3.40;;
4885;SDS011;2457;51.788;6.136;2023-04-27T11:59:02;6.13;;;3.00;;
4885;SDS011;2457;51.788;6.136;2023-04-27T12:01:34;7.80;;;3.20;;
4885;SDS011;2457;51.788;6.136;2023-04-27T12:03:59;7.10;;;3.20;;
4885;SDS011;2457;51.788;6.136;2023-04-27T12:06:28;7.53;;;3.30;;
4885;SDS011;2457;51.788;6.136;2023-04-27T12:08:56;5.30;;;2.73;;
4885;SDS011;2457;51.788;6.136;2023-04-27T12:11:24;6.03;;;3.03;;
4885;SDS011;2457;51.788;6.136;2023-04-27T12:13:53;5.70;;;3.10;;
4885;SDS011;2457;51.788;6.136;2023-04-27T12:16:20;7.13;;;2.97;;
4885;SDS011;2457;51.788;6.136;2023-04-27T12:18:50;9.63;;;2.97;;
4885;SDS011;2457;51.788;6.136;2023-04-27T12:21:17;7.97;;;2.90;;
4885;SDS011;2457;51.788;6.136;2023-04-27T12:23:45;6.40;;;2.80;;
4885;SDS011;2457;51.788;6.136;2023-04-27T12:26:12;6.40;;;2.40;;
4885;SDS011;2457;51.788;6.136;2023-04-27T12:28:40;11.80;;;3.30;;
4885;SDS011;2457;51.788;6.136;2023-04-27T12:31:07;4.90;;;2.23;;
4885;SDS011;2457;51.788;6.136;2023-04-27T12:33:34;5.67;;;2.70;;
4885;SDS011;2457;51.788;6.136;2023-04-27T12:36:02;7.80;;;3.10;;
4885;SDS011;2457;51.788;6.136;2023-04-27T12:38:29;5.90;;;2.80;;
4885;SDS011;2457;51.788;6.136;2023-04-27T12:40:57;5.43;;;2.70;;
4885;SDS011;2457;51.788;6.136;2023-04-27T12:43:24;6.93;;;2.90;;
4885;SDS011;2457;51.788;6.136;2023-04-27T12:45:52;7.00;;;3.17;;
4885;SDS011;2457;51.788;6.136;2023-04-27T12:48:19;5.43;;;2.60;;
4885;SDS011;2457;51.788;6.136;2023-04-27T12:50:47;7.27;;;2.60;;
4885;SDS011;2457;51.788;6.136;2023-04-27T12:53:15;8.37;;;2.77;;
4885;SDS011;2457;51.788;6.136;2023-04-27T12:55:42;4.20;;;2.20;;
4885;SDS011;2457;51.788;6.136;2023-04-27T12:58:09;5.57;;;2.50;;
4885;SDS011;2457;51.788;6.136;2023-04-27T13:00:37;5.30;;;2.90;;
4885;SDS011;2457;51.788;6.136;2023-04-27T13:03:04;6.83;;;3.30;;
4885;SDS011;2457;51.788;6.136;2023-04-27T13:05:32;10.83;;;2.60;;
4885;SDS011;2457;51.788;6.136;2023-04-27T13:07:59;9.87;;;2.57;;
4885;SDS011;2457;51.788;6.136;2023-04-27T13:10:27;7.07;;;2.07;;
4885;SDS011;2457;51.788;6.136;2023-04-27T13:12:54;5.30;;;3.10;;
4885;SDS011;2457;51.788;6.136;2023-04-27T13:15:22;6.63;;;3.17;;
4885;SDS011;2457;51.788;6.136;2023-04-27T13:17:49;4.50;;;2.10;;
4885;SDS011;2457;51.788;6.136;2023-04-27T13:20:18;4.97;;;2.63;;
4885;SDS011;2457;51.788;6.136;2023-04-27T13:22:46;7.20;;;2.53;;
4885;SDS011;2457;51.788;6.136;2023-04-27T13:25:13;14.17;;;2.83;;
4885;SDS011;2457;51.788;6.136;2023-04-27T13:27:42;7.23;;;3.00;;
4885;SDS011;2457;51.788;6.136;2023-04-27T13:30:09;6.23;;;2.63;;
4885;SDS011;2457;51.788;6.136;2023-04-27T13:32:36;6.17;;;2.80;;
4885;SDS011;2457;51.788;6.136;2023-04-27T13:35:04;7.03;;;2.87;;
4885;SDS011;2457;51.788;6.136;2023-04-27T13:37:32;5.33;;;2.60;;
4885;SDS011;2457;51.788;6.136;2023-04-27T13:40:00;6.30;;;3.50;;
4885;SDS011;2457;51.788;6.136;2023-04-27T13:42:27;8.33;;;3.57;;
4885;SDS011;2457;51.788;6.136;2023-04-27T13:44:54;5.40;;;2.70;;
4885;SDS011;2457;51.788;6.136;2023-04-27T13:47:24;8.20;;;2.90;;
4885;SDS011;2457;51.788;6.136;2023-04-27T13:49:51;10.10;;;2.90;;
4885;SDS011;2457;51.788;6.136;2023-04-27T13:52:18;6.00;;;2.87;;
4885;SDS011;2457;51.788;6.136;2023-04-27T13:54:46;5.87;;;3.37;;
4885;SDS011;2457;51.788;6.136;2023-04-27T13:57:13;6.47;;;2.80;;
4885;SDS011;2457;51.788;6.136;2023-04-27T13:59:40;5.53;;;2.83;;
4885;SDS011;2457;51.788;6.136;2023-04-27T14:02:08;9.70;;;2.90;;
4885;SDS011;2457;51.788;6.136;2023-04-27T14:04:35;7.03;;;3.07;;
4885;SDS011;2457;51.788;6.136;2023-04-27T14:07:02;8.37;;;2.77;;
4885;SDS011;2457;51.788;6.136;2023-04-27T14:09:29;7.87;;;3.00;;
4885;SDS011;2457;51.788;6.136;2023-04-27T14:11:57;4.90;;;2.63;;
4885;SDS011;2457;51.788;6.136;2023-04-27T14:14:24;8.20;;;2.93;;
4885;SDS011;2457;51.788;6.136;2023-04-27T14:16:52;6.10;;;2.33;;
4885;SDS011;2457;51.788;6.136;2023-04-27T14:19:19;5.70;;;2.57;;
4885;SDS011;2457;51.788;6.136;2023-04-27T14:21:47;6.27;;;3.13;;
4885;SDS011;2457;51.788;6.136;2023-04-27T14:24:15;5.77;;;3.00;;
4885;SDS011;2457;51.788;6.136;2023-04-27T14:26:42;6.30;;;2.50;;
4885;SDS011;2457;51.788;6.136;2023-04-27T14:29:10;5.80;;;2.63;;
4885;SDS011;2457;51.788;6.136;2023-04-27T14:31:38;5.90;;;3.00;;
4885;SDS011;2457;51.788;6.136;2023-04-27T14:34:06;8.03;;;2.60;;
4885;SDS011;2457;51.788;6.136;2023-04-27T14:36:34;6.30;;;2.70;;
4885;SDS011;2457;51.788;6.136;2023-04-27T14:39:02;7.40;;;2.80;;
4885;SDS011;2457;51.788;6.136;2023-04-27T14:41:30;8.80;;;3.00;;
4885;SDS011;2457;51.788;6.136;2023-04-27T14:43:58;8.43;;;3.13;;
4885;SDS011;2457;51.788;6.136;2023-04-27T14:46:25;9.47;;;3.00;;
4885;SDS011;2457;51.788;6.136;2023-04-27T14:48:53;7.97;;;3.10;;
4885;SDS011;2457;51.788;6.136;2023-04-27T14:51:21;4.80;;;2.67;;
4885;SDS011;2457;51.788;6.136;2023-04-27T14:53:48;19.30;;;3.93;;
4885;SDS011;2457;51.788;6.136;2023-04-27T14:56:16;6.60;;;3.10;;
4885;SDS011;2457;51.788;6.136;2023-04-27T14:58:43;5.47;;;2.57;;
4885;SDS011;2457;51.788;6.136;2023-04-27T15:01:10;4.80;;;2.60;;
4885;SDS011;2457;51.788;6.136;2023-04-27T15:03:38;6.07;;;2.73;;
4885;SDS011;2457;51.788;6.136;2023-04-27T15:06:05;6.73;;;3.10;;
4885;SDS011;2457;51.788;6.136;2023-04-27T15:08:32;5.10;;;2.83;;
4885;SDS011;2457;51.788;6.136;2023-04-27T15:11:00;4.73;;;2.60;;
4885;SDS011;2457;51.788;6.136;2023-04-27T15:13:29;6.03;;;3.20;;
4885;SDS011;2457;51.788;6.136;2023-04-27T15:15:57;8.77;;;3.30;;
4885;SDS011;2457;51.788;6.136;2023-04-27T15:18:24;7.53;;;3.43;;
4885;SDS011;2457;51.788;6.136;2023-04-27T15:20:55;18.93;;;3.43;;
4885;SDS011;2457;51.788;6.136;2023-04-27T15:23:23;5.53;;;3.10;;